sensor_id;sensor_type;location;lat;lon;timestamp;P1;durP1;ratioP1;P2;durP2;ratioP2
6249;SDS011;3158;52.148;11.568;2022-09-03T00:01:20;0.25;;;0.25;;
6249;SDS011;3158;52.148;11.568;2022-09-03T00:06:25;0.30;;;0.28;;
6249;SDS011;3158;52.148;11.568;2022-09-03T00:16:51;0.20;;;0.20;;
6249;SDS011;3158;52.148;11.568;2022-09-03T00:21:55;0.20;;;0.20;;
6249;SDS011;3158;52.148;11.568;2022-09-03T00:26:59;0.20;;;0.20;;
6249;SDS011;3158;52.148;11.568;2022-09-03T00:32:06;0.10;;;0.10;;
6249;SDS011;3158;52.148;11.568;2022-09-03T00:37:11;0.28;;;0.28;;
6249;SDS011;3158;52.148;11.568;2022-09-03T00:47:33;0.20;;;0.20;;
6249;SDS011;3158;52.148;11.568;2022-09-03T00:52:37;0.13;;;0.13;;
6249;SDS011;3158;52.148;11.568;2022-09-03T01:02:56;0.10;;;0.10;;
6249;SDS011;3158;52.148;11.568;2022-09-03T01:08:03;0.20;;;0.20;;
6249;SDS011;3158;52.148;11.568;2022-09-03T01:34:12;0.20;;;0.20;;
6249;SDS011;3158;52.148;11.568;2022-09-03T01:39:18;0.20;;;0.20;;
6249;SDS011;3158;52.148;11.568;2022-09-03T01:49:50;0.20;;;0.20;;
6249;SDS011;3158;52.148;11.568;2022-09-03T01:55:04;0.20;;;0.20;;
6249;SDS011;3158;52.148;11.568;2022-09-03T02:00:14;0.20;;;0.20;;
6249;SDS011;3158;52.148;11.568;2022-09-03T02:05:25;0.20;;;0.20;;
6249;SDS011;3158;52.148;11.568;2022-09-03T02:10:37;0.13;;;0.13;;
6249;SDS011;3158;52.148;11.568;2022-09-03T02:15:41;0.20;;;0.10;;
6249;SDS011;3158;52.148;11.568;2022-09-03T02:20:47;0.10;;;0.10;;
6249;SDS011;3158;52.148;11.568;2022-09-03T02:25:50;0.30;;;0.30;;
6249;SDS011;3158;52.148;11.568;2022-09-03T02:30:52;0.35;;;0.35;;
6249;SDS011;3158;52.148;11.568;2022-09-03T02:35:53;0.20;;;0.20;;
6249;SDS011;3158;52.148;11.568;2022-09-03T02:40:54;0.20;;;0.20;;
6249;SDS011;3158;52.148;11.568;2022-09-03T02:45:57;0.22;;;0.22;;
6249;SDS011;3158;52.148;11.568;2022-09-03T02:50:59;0.20;;;0.20;;
6249;SDS011;3158;52.148;11.568;2022-09-03T02:56:00;0.20;;;0.20;;
6249;SDS011;3158;52.148;11.568;2022-09-03T03:01:01;0.20;;;0.20;;
6249;SDS011;3158;52.148;11.568;2022-09-03T03:06:03;0.20;;;0.20;;
6249;SDS011;3158;52.148;11.568;2022-09-03T03:11:06;0.20;;;0.20;;
6249;SDS011;3158;52.148;11.568;2022-09-03T03:16:07;0.20;;;0.20;;
6249;SDS011;3158;52.148;11.568;2022-09-03T03:21:09;0.20;;;0.20;;
6249;SDS011;3158;52.148;11.568;2022-09-03T03:26:11;0.20;;;0.20;;
6249;SDS011;3158;52.148;11.568;2022-09-03T03:31:17;0.40;;;0.40;;
6249;SDS011;3158;52.148;11.568;2022-09-03T03:36:19;0.28;;;0.28;;
6249;SDS011;3158;52.148;11.568;2022-09-03T03:41:22;0.30;;;0.30;;
6249;SDS011;3158;52.148;11.568;2022-09-03T03:46:23;0.20;;;0.20;;
6249;SDS011;3158;52.148;11.568;2022-09-03T03:51:24;0.25;;;0.25;;
6249;SDS011;3158;52.148;11.568;2022-09-03T03:56:26;0.20;;;0.20;;
6249;SDS011;3158;52.148;11.568;2022-09-03T04:01:27;0.30;;;0.30;;
6249;SDS011;3158;52.148;11.568;2022-09-03T04:06:28;0.40;;;0.40;;
6249;SDS011;3158;52.148;11.568;2022-09-03T04:11:29;0.30;;;0.30;;
6249;SDS011;3158;52.148;11.568;2022-09-03T04:16:31;0.40;;;0.40;;
6249;SDS011;3158;52.148;11.568;2022-09-03T04:21:32;0.30;;;0.30;;
6249;SDS011;3158;52.148;11.568;2022-09-03T04:26:33;0.30;;;0.30;;
6249;SDS011;3158;52.148;11.568;2022-09-03T04:31:35;0.40;;;0.40;;
6249;SDS011;3158;52.148;11.568;2022-09-03T04:36:36;0.40;;;0.40;;
6249;SDS011;3158;52.148;11.568;2022-09-03T04:41:37;0.38;;;0.38;;
6249;SDS011;3158;52.148;11.568;2022-09-03T04:46:38;0.50;;;0.50;;
6249;SDS011;3158;52.148;11.568;2022-09-03T04:51:39;0.45;;;0.45;;
6249;SDS011;3158;52.148;11.568;2022-09-03T04:56:40;0.32;;;0.32;;
6249;SDS011;3158;52.148;11.568;2022-09-03T05:01:42;0.32;;;0.32;;
6249;SDS011;3158;52.148;11.568;2022-09-03T05:06:43;0.30;;;0.30;;
6249;SDS011;3158;52.148;11.568;2022-09-03T05:11:45;0.40;;;0.40;;
6249;SDS011;3158;52.148;11.568;2022-09-03T05:16:46;0.40;;;0.40;;
6249;SDS011;3158;52.148;11.568;2022-09-03T05:21:47;0.85;;;0.40;;
6249;SDS011;3158;52.148;11.568;2022-09-03T05:26:48;0.40;;;0.40;;
6249;SDS011;3158;52.148;11.568;2022-09-03T05:31:49;0.40;;;0.40;;
6249;SDS011;3158;52.148;11.568;2022-09-03T05:36:50;0.30;;;0.30;;
6249;SDS011;3158;52.148;11.568;2022-09-03T05:41:52;0.60;;;0.60;;
6249;SDS011;3158;52.148;11.568;2022-09-03T05:46:53;0.40;;;0.40;;
6249;SDS011;3158;52.148;11.568;2022-09-03T05:51:54;0.77;;;0.68;;
6249;SDS011;3158;52.148;11.568;2022-09-03T05:56:55;0.50;;;0.50;;
6249;SDS011;3158;52.148;11.568;2022-09-03T06:01:56;0.50;;;0.50;;
6249;SDS011;3158;52.148;11.568;2022-09-03T06:06:57;0.40;;;0.40;;
6249;SDS011;3158;52.148;11.568;2022-09-03T06:11:58;0.50;;;0.50;;
6249;SDS011;3158;52.148;11.568;2022-09-03T06:16:59;0.43;;;0.43;;
6249;SDS011;3158;52.148;11.568;2022-09-03T06:22:00;0.63;;;0.52;;
6249;SDS011;3158;52.148;11.568;2022-09-03T06:27:01;0.47;;;0.40;;
6249;SDS011;3158;52.148;11.568;2022-09-03T06:32:03;0.55;;;0.55;;
6249;SDS011;3158;52.148;11.568;2022-09-03T06:37:04;0.63;;;0.63;;
6249;SDS011;3158;52.148;11.568;2022-09-03T06:42:05;2.08;;;0.73;;
6249;SDS011;3158;52.148;11.568;2022-09-03T06:47:09;0.40;;;0.40;;
6249;SDS011;3158;52.148;11.568;2022-09-03T06:52:10;0.50;;;0.50;;
6249;SDS011;3158;52.148;11.568;2022-09-03T06:57:11;0.65;;;0.55;;
6249;SDS011;3158;52.148;11.568;2022-09-03T07:02:12;0.50;;;0.50;;
6249;SDS011;3158;52.148;11.568;2022-09-03T07:07:14;0.60;;;0.60;;
6249;SDS011;3158;52.148;11.568;2022-09-03T07:12:15;0.40;;;0.40;;
6249;SDS011;3158;52.148;11.568;2022-09-03T07:17:18;0.40;;;0.40;;
6249;SDS011;3158;52.148;11.568;2022-09-03T07:22:19;0.55;;;0.55;;
6249;SDS011;3158;52.148;11.568;2022-09-03T07:27:20;0.32;;;0.32;;
6249;SDS011;3158;52.148;11.568;2022-09-03T07:32:21;0.38;;;0.38;;
6249;SDS011;3158;52.148;11.568;2022-09-03T07:37:22;0.55;;;0.55;;
6249;SDS011;3158;52.148;11.568;2022-09-03T07:42:23;0.40;;;0.40;;
6249;SDS011;3158;52.148;11.568;2022-09-03T07:47:26;0.40;;;0.40;;
6249;SDS011;3158;52.148;11.568;2022-09-03T07:52:29;0.30;;;0.30;;
6249;SDS011;3158;52.148;11.568;2022-09-03T07:57:30;0.40;;;0.40;;
6249;SDS011;3158;52.148;11.568;2022-09-03T08:02:31;0.40;;;0.40;;
6249;SDS011;3158;52.148;11.568;2022-09-03T08:07:32;0.30;;;0.30;;
6249;SDS011;3158;52.148;11.568;2022-09-03T08:12:34;0.45;;;0.32;;
6249;SDS011;3158;52.148;11.568;2022-09-03T08:17:35;0.40;;;0.40;;
6249;SDS011;3158;52.148;11.568;2022-09-03T08:22:36;0.30;;;0.30;;
6249;SDS011;3158;52.148;11.568;2022-09-03T08:27:37;1.13;;;0.30;;
6249;SDS011;3158;52.148;11.568;2022-09-03T08:32:38;0.50;;;0.50;;
6249;SDS011;3158;52.148;11.568;2022-09-03T08:37:39;1.52;;;0.38;;
6249;SDS011;3158;52.148;11.568;2022-09-03T08:42:42;0.45;;;0.40;;
6249;SDS011;3158;52.148;11.568;2022-09-03T08:47:49;0.30;;;0.30;;
6249;SDS011;3158;52.148;11.568;2022-09-03T08:53:12;3.83;;;0.77;;
6249;SDS011;3158;52.148;11.568;2022-09-03T08:58:21;0.45;;;0.40;;
6249;SDS011;3158;52.148;11.568;2022-09-03T09:19:48;0.65;;;0.30;;
6249;SDS011;3158;52.148;11.568;2022-09-03T09:24:51;0.20;;;0.20;;
6249;SDS011;3158;52.148;11.568;2022-09-03T09:29:54;0.30;;;0.30;;
6249;SDS011;3158;52.148;11.568;2022-09-03T09:34:57;0.30;;;0.30;;
6249;SDS011;3158;52.148;11.568;2022-09-03T09:39:59;0.20;;;0.20;;
6249;SDS011;3158;52.148;11.568;2022-09-03T09:45:07;0.30;;;0.30;;
6249;SDS011;3158;52.148;11.568;2022-09-03T09:50:18;0.28;;;0.28;;
6249;SDS011;3158;52.148;11.568;2022-09-03T09:55:20;0.57;;;0.30;;
6249;SDS011;3158;52.148;11.568;2022-09-03T10:00:22;0.28;;;0.28;;
6249;SDS011;3158;52.148;11.568;2022-09-03T10:05:25;0.75;;;0.30;;
6249;SDS011;3158;52.148;11.568;2022-09-03T10:10:27;0.30;;;0.30;;
6249;SDS011;3158;52.148;11.568;2022-09-03T10:15:32;0.40;;;0.40;;
6249;SDS011;3158;52.148;11.568;2022-09-03T10:20:38;1.15;;;0.35;;
6249;SDS011;3158;52.148;11.568;2022-09-03T10:46:16;0.30;;;0.30;;
6249;SDS011;3158;52.148;11.568;2022-09-03T11:06:40;0.30;;;0.30;;
6249;SDS011;3158;52.148;11.568;2022-09-03T11:11:46;0.35;;;0.30;;
6249;SDS011;3158;52.148;11.568;2022-09-03T11:16:51;0.30;;;0.30;;
6249;SDS011;3158;52.148;11.568;2022-09-03T11:21:54;0.50;;;0.50;;
6249;SDS011;3158;52.148;11.568;2022-09-03T11:26:57;0.30;;;0.30;;
6249;SDS011;3158;52.148;11.568;2022-09-03T11:32:16;0.40;;;0.40;;
6249;SDS011;3158;52.148;11.568;2022-09-03T11:37:27;0.30;;;0.30;;
6249;SDS011;3158;52.148;11.568;2022-09-03T11:42:30;0.38;;;0.38;;
6249;SDS011;3158;52.148;11.568;2022-09-03T11:47:36;0.40;;;0.40;;
6249;SDS011;3158;52.148;11.568;2022-09-03T11:52:39;0.32;;;0.32;;
6249;SDS011;3158;52.148;11.568;2022-09-03T11:57:40;0.30;;;0.30;;
6249;SDS011;3158;52.148;11.568;2022-09-03T12:02:49;0.30;;;0.30;;
6249;SDS011;3158;52.148;11.568;2022-09-03T12:08:04;0.63;;;0.50;;
6249;SDS011;3158;52.148;11.568;2022-09-03T12:18:21;0.50;;;0.50;;
6249;SDS011;3158;52.148;11.568;2022-09-03T12:23:27;0.45;;;0.45;;
6249;SDS011;3158;52.148;11.568;2022-09-03T12:28:28;0.30;;;0.30;;
6249;SDS011;3158;52.148;11.568;2022-09-03T12:33:32;0.30;;;0.30;;
6249;SDS011;3158;52.148;11.568;2022-09-03T12:38:33;0.50;;;0.50;;
6249;SDS011;3158;52.148;11.568;2022-09-03T12:43:34;0.50;;;0.50;;
6249;SDS011;3158;52.148;11.568;2022-09-03T12:48:35;0.40;;;0.40;;
6249;SDS011;3158;52.148;11.568;2022-09-03T12:53:36;0.30;;;0.30;;
6249;SDS011;3158;52.148;11.568;2022-09-03T13:03:52;0.40;;;0.40;;
6249;SDS011;3158;52.148;11.568;2022-09-03T13:09:00;0.40;;;0.40;;
6249;SDS011;3158;52.148;11.568;2022-09-03T13:14:07;0.40;;;0.40;;
6249;SDS011;3158;52.148;11.568;2022-09-03T13:24:45;0.43;;;0.43;;
6249;SDS011;3158;52.148;11.568;2022-09-03T13:29:56;0.40;;;0.40;;
6249;SDS011;3158;52.148;11.568;2022-09-03T13:35:48;0.77;;;0.40;;
6249;SDS011;3158;52.148;11.568;2022-09-03T13:40:35;0.40;;;0.40;;
6249;SDS011;3158;52.148;11.568;2022-09-03T13:45:39;2.28;;;0.47;;
6249;SDS011;3158;52.148;11.568;2022-09-03T13:50:42;0.75;;;0.40;;
6249;SDS011;3158;52.148;11.568;2022-09-03T13:55:47;0.85;;;0.43;;
6249;SDS011;3158;52.148;11.568;2022-09-03T14:01:37;0.28;;;0.28;;
6249;SDS011;3158;52.148;11.568;2022-09-03T14:16:56;1.23;;;0.50;;
6249;SDS011;3158;52.148;11.568;2022-09-03T14:22:00;0.40;;;0.40;;
6249;SDS011;3158;52.148;11.568;2022-09-03T14:27:05;0.75;;;0.60;;
6249;SDS011;3158;52.148;11.568;2022-09-03T14:37:38;0.50;;;0.50;;
6249;SDS011;3158;52.148;11.568;2022-09-03T14:42:56;0.40;;;0.40;;
6249;SDS011;3158;52.148;11.568;2022-09-03T14:48:05;0.82;;;0.50;;
6249;SDS011;3158;52.148;11.568;2022-09-03T14:58:25;0.50;;;0.50;;
6249;SDS011;3158;52.148;11.568;2022-09-03T15:03:32;0.50;;;0.50;;
6249;SDS011;3158;52.148;11.568;2022-09-03T15:13:44;0.82;;;0.63;;
6249;SDS011;3158;52.148;11.568;2022-09-03T15:24:31;0.47;;;0.47;;
6249;SDS011;3158;52.148;11.568;2022-09-03T15:34:54;0.50;;;0.50;;
6249;SDS011;3158;52.148;11.568;2022-09-03T15:40:46;0.60;;;0.60;;
6249;SDS011;3158;52.148;11.568;2022-09-03T15:50:34;0.70;;;0.70;;
6249;SDS011;3158;52.148;11.568;2022-09-03T15:55:39;0.60;;;0.60;;
6249;SDS011;3158;52.148;11.568;2022-09-03T16:05:53;0.65;;;0.50;;
6249;SDS011;3158;52.148;11.568;2022-09-03T16:11:00;1.20;;;0.60;;
6249;SDS011;3158;52.148;11.568;2022-09-03T16:16:10;0.77;;;0.40;;
6249;SDS011;3158;52.148;11.568;2022-09-03T16:36:42;0.60;;;0.60;;
6249;SDS011;3158;52.148;11.568;2022-09-03T16:47:01;0.60;;;0.60;;
6249;SDS011;3158;52.148;11.568;2022-09-03T17:07:49;0.90;;;0.50;;
6249;SDS011;3158;52.148;11.568;2022-09-03T17:18:21;0.73;;;0.60;;
6249;SDS011;3158;52.148;11.568;2022-09-03T17:34:13;1.45;;;0.60;;
6249;SDS011;3158;52.148;11.568;2022-09-03T17:39:33;0.50;;;0.50;;
6249;SDS011;3158;52.148;11.568;2022-09-03T17:44:46;0.60;;;0.60;;
6249;SDS011;3158;52.148;11.568;2022-09-03T17:49:53;0.68;;;0.68;;
6249;SDS011;3158;52.148;11.568;2022-09-03T17:54:58;0.70;;;0.70;;
6249;SDS011;3158;52.148;11.568;2022-09-03T18:00:07;0.45;;;0.45;;
6249;SDS011;3158;52.148;11.568;2022-09-03T18:15:53;0.98;;;0.50;;
6249;SDS011;3158;52.148;11.568;2022-09-03T18:20:57;0.80;;;0.70;;
6249;SDS011;3158;52.148;11.568;2022-09-03T18:26:22;0.60;;;0.60;;
6249;SDS011;3158;52.148;11.568;2022-09-03T18:31:44;0.60;;;0.60;;
6249;SDS011;3158;52.148;11.568;2022-09-03T18:37:04;0.45;;;0.45;;
6249;SDS011;3158;52.148;11.568;2022-09-03T18:42:34;0.60;;;0.60;;
6249;SDS011;3158;52.148;11.568;2022-09-03T18:48:20;0.70;;;0.45;;
6249;SDS011;3158;52.148;11.568;2022-09-03T19:10:07;0.57;;;0.57;;
6249;SDS011;3158;52.148;11.568;2022-09-03T19:15:30;0.73;;;0.73;;
6249;SDS011;3158;52.148;11.568;2022-09-03T19:26:30;0.57;;;0.57;;
6249;SDS011;3158;52.148;11.568;2022-09-03T19:31:55;1.13;;;0.80;;
6249;SDS011;3158;52.148;11.568;2022-09-03T19:37:17;0.70;;;0.70;;
6249;SDS011;3158;52.148;11.568;2022-09-03T19:48:20;0.65;;;0.65;;
6249;SDS011;3158;52.148;11.568;2022-09-03T19:53:44;0.60;;;0.60;;
6249;SDS011;3158;52.148;11.568;2022-09-03T19:59:09;0.50;;;0.50;;
6249;SDS011;3158;52.148;11.568;2022-09-03T20:04:32;0.60;;;0.60;;
6249;SDS011;3158;52.148;11.568;2022-09-03T20:09:53;0.70;;;0.70;;
6249;SDS011;3158;52.148;11.568;2022-09-03T20:15:14;0.88;;;0.63;;
6249;SDS011;3158;52.148;11.568;2022-09-03T20:30:25;0.68;;;0.68;;
6249;SDS011;3158;52.148;11.568;2022-09-03T20:41:31;0.60;;;0.60;;
6249;SDS011;3158;52.148;11.568;2022-09-03T20:51:25;0.63;;;0.63;;
6249;SDS011;3158;52.148;11.568;2022-09-03T21:06:59;0.65;;;0.65;;
6249;SDS011;3158;52.148;11.568;2022-09-03T21:27:48;1.40;;;0.80;;
6249;SDS011;3158;52.148;11.568;2022-09-03T21:32:51;0.68;;;0.68;;
6249;SDS011;3158;52.148;11.568;2022-09-03T21:37:57;0.75;;;0.75;;
6249;SDS011;3158;52.148;11.568;2022-09-03T21:48:07;2.15;;;0.70;;
6249;SDS011;3158;52.148;11.568;2022-09-03T21:58:26;0.80;;;0.80;;
6249;SDS011;3158;52.148;11.568;2022-09-03T22:03:31;0.80;;;0.80;;
6249;SDS011;3158;52.148;11.568;2022-09-03T22:08:44;1.23;;;0.93;;
6249;SDS011;3158;52.148;11.568;2022-09-03T22:13:50;0.95;;;0.95;;
6249;SDS011;3158;52.148;11.568;2022-09-03T22:18:53;0.90;;;0.85;;
6249;SDS011;3158;52.148;11.568;2022-09-03T22:24:06;1.00;;;1.00;;
6249;SDS011;3158;52.148;11.568;2022-09-03T22:29:21;0.90;;;0.90;;
6249;SDS011;3158;52.148;11.568;2022-09-03T22:34:27;0.60;;;0.60;;
6249;SDS011;3158;52.148;11.568;2022-09-03T22:39:36;0.70;;;0.70;;
6249;SDS011;3158;52.148;11.568;2022-09-03T22:49:53;0.77;;;0.65;;
6249;SDS011;3158;52.148;11.568;2022-09-03T23:00:06;0.88;;;0.88;;
6249;SDS011;3158;52.148;11.568;2022-09-03T23:05:09;0.80;;;0.80;;
6249;SDS011;3158;52.148;11.568;2022-09-03T23:10:21;0.70;;;0.70;;
6249;SDS011;3158;52.148;11.568;2022-09-03T23:15:24;0.90;;;0.90;;
6249;SDS011;3158;52.148;11.568;2022-09-03T23:20:29;1.38;;;0.80;;
6249;SDS011;3158;52.148;11.568;2022-09-03T23:25:38;1.42;;;0.80;;
6249;SDS011;3158;52.148;11.568;2022-09-03T23:30:42;0.80;;;0.80;;
6249;SDS011;3158;52.148;11.568;2022-09-03T23:35:47;1.00;;;0.90;;
6249;SDS011;3158;52.148;11.568;2022-09-03T23:40:49;0.80;;;0.80;;
6249;SDS011;3158;52.148;11.568;2022-09-03T23:45:55;0.75;;;0.75;;
6249;SDS011;3158;52.148;11.568;2022-09-03T23:51:09;0.60;;;0.60;;
